Terminal Aerodrome Forecast
Issued by NWS Northern Indiana

Home | Current Version | Previous Version | Text Only | Print | Product List | Glossary On
Versions: 1 2 3 4 5 6 7 8 9 10 11 12 13 14 15 16 17 18
000
FTUS43 KIWX 312300
TAFFWA
TAF
KFWA 312327Z 0100/0124 23010KT P6SM OVC040
     FM010400 23005KT 2SM -SN OVC008
     FM010900 18006KT 1SM -SN OVC008
     FM011400 08012KT 1/2SM SN FZFG VV004
     FM011800 08015G25KT 1/2SM SN FZFG BLSN VV004=

USA.gov is the U.S. government's official web portal to all federal, state and local government web resources and services.